Time;durP1;ratioP1;P1;durP2;ratioP2;P2;SDS_P1;SDS_P2;PMS_P1;PMS_P2;Temp;Humidity;BMP_temperature;BMP_pressure;BME280_temperature;BME280_humidity;BME280_pressure;Samples;Min_cycle;Max_cycle;Signal;HPM_P1;HPM_P2
2022/12/13 00:00:56;;;;;;;52.78;20.80;;;;;;;-1.45;84.66;100747.59;5073554;28;20040;-72
2022/12/13 00:03:22;;;;;;;51.38;18.85;;;;;;;-1.39;84.79;100746.44;5073447;28;20093;-73
2022/12/13 00:05:49;;;;;;;49.75;19.45;;;;;;;-1.39;84.55;100744.66;5038559;28;20040;-73
2022/12/13 00:08:16;;;;;;;56.33;21.23;;;;;;;-1.36;83.84;100747.13;5055052;28;20040;-72
2022/12/13 00:10:42;;;;;;;52.08;20.23;;;;;;;-1.51;84.33;100745.28;5073447;28;20127;-73
2022/12/13 00:13:09;;;;;;;52.00;21.45;;;;;;;-1.46;84.45;100742.44;5073128;28;20048;-72
2022/12/13 00:15:36;;;;;;;49.92;20.42;;;;;;;-1.53;84.13;100741.91;5039235;28;20356;-72
2022/12/13 00:18:03;;;;;;;52.92;22.00;;;;;;;-1.49;84.27;100743.47;5055539;28;20049;-72
2022/12/13 00:20:30;;;;;;;54.85;21.15;;;;;;;-1.45;83.98;100742.38;5073397;28;20074;-72
2022/12/13 00:22:57;;;;;;;50.13;20.60;;;;;;;-1.46;83.71;100737.25;5073462;28;20505;-72
2022/12/13 00:25:25;;;;;;;51.17;20.02;;;;;;;-1.42;83.43;100738.75;5073201;28;20049;-73
2022/12/13 00:27:52;;;;;;;53.80;20.63;;;;;;;-1.50;83.60;100741.75;5073436;28;20051;-72
2022/12/13 00:30:19;;;;;;;52.70;20.25;;;;;;;-1.49;83.47;100737.38;5073025;28;20040;-72
2022/12/13 00:32:45;;;;;;;51.05;20.13;;;;;;;-1.52;83.41;100742.78;5073112;28;20055;-73
2022/12/13 00:35:12;;;;;;;51.20;19.55;;;;;;;-1.60;83.81;100741.38;5072842;28;20055;-72
2022/12/13 00:37:39;;;;;;;54.72;21.95;;;;;;;-1.55;83.68;100738.53;5072548;28;20512;-73
2022/12/13 00:40:06;;;;;;;47.30;20.45;;;;;;;-1.52;84.19;100741.00;5073155;28;20040;-73
2022/12/13 00:42:33;;;;;;;51.88;20.30;;;;;;;-1.56;84.31;100742.91;5073174;28;20075;-73
2022/12/13 00:45:00;;;;;;;54.35;22.33;;;;;;;-1.62;84.59;100743.22;5072935;28;20383;-73
2022/12/13 00:47:27;;;;;;;51.08;20.98;;;;;;;-1.72;84.76;100741.16;5072439;28;20451;-73
2022/12/13 00:49:54;;;;;;;56.13;20.73;;;;;;;-1.68;84.88;100735.72;5072925;28;20098;-72
2022/12/13 00:52:20;;;;;;;52.53;21.73;;;;;;;-1.75;84.88;100747.31;5055069;28;20052;-72
2022/12/13 00:54:47;;;;;;;51.28;20.58;;;;;;;-1.73;84.87;100745.50;5072935;28;20098;-72
2022/12/13 00:57:14;;;;;;;47.67;20.23;;;;;;;-1.79;84.88;100732.78;5058065;28;20119;-72
2022/12/13 00:59:40;;;;;;;48.28;20.25;;;;;;;-1.77;85.00;100733.56;5077000;28;20051;-72
2022/12/13 01:02:07;;;;;;;53.72;20.52;;;;;;;-1.79;84.60;100731.03;5077140;28;20131;-72
2022/12/13 01:04:35;;;;;;;46.63;19.63;;;;;;;-1.76;84.38;100740.47;5076523;28;20048;-72
2022/12/13 01:07:02;;;;;;;49.85;20.45;;;;;;;-1.79;84.47;100738.84;5058393;28;20132;-73
2022/12/13 01:09:31;;;;;;;56.42;21.05;;;;;;;-1.78;84.37;100732.72;5076528;28;20067;-72
2022/12/13 01:12:00;;;;;;;49.58;19.77;;;;;;;-1.77;84.36;100734.41;5076614;28;20492;-72
2022/12/13 01:14:28;;;;;;;47.60;19.40;;;;;;;-1.84;84.63;100733.00;5076736;28;20120;-73
2022/12/13 01:16:55;;;;;;;51.25;20.52;;;;;;;-1.85;84.81;100731.34;5076596;28;20036;-73
2022/12/13 01:19:23;;;;;;;49.72;20.70;;;;;;;-1.82;84.49;100733.81;5059146;28;20068;-73
2022/12/13 01:21:55;;;;;;;49.25;19.75;;;;;;;-1.81;84.44;100737.22;5076166;28;20071;-73
2022/12/13 01:24:23;;;;;;;47.45;20.25;;;;;;;-1.83;84.28;100736.47;5076609;28;20052;-72
2022/12/13 01:26:52;;;;;;;50.10;20.42;;;;;;;-1.94;85.03;100737.81;5076159;28;20060;-73
2022/12/13 01:29:19;;;;;;;48.17;19.42;;;;;;;-1.83;84.44;100736.47;5058309;28;20116;-72
2022/12/13 01:31:47;;;;;;;47.83;19.88;;;;;;;-1.85;84.50;100746.13;5076341;28;20103;-73
2022/12/13 01:34:16;;;;;;;49.50;20.33;;;;;;;-1.86;84.49;100739.22;5075937;28;20052;-72
2022/12/13 01:36:44;;;;;;;52.05;21.83;;;;;;;-1.92;84.90;100744.72;5076045;28;20553;-73
2022/12/13 01:39:14;;;;;;;53.63;20.10;;;;;;;-1.98;84.83;100751.06;5075928;28;20397;-73
2022/12/13 01:41:43;;;;;;;42.85;19.17;;;;;;;-2.02;84.62;100749.50;5076730;28;20048;-73
2022/12/13 01:44:50;;;;;;;48.83;20.00;;;;;;;-2.02;84.69;100750.38;5075896;28;20383;-73
2022/12/13 01:47:25;;;;;;;52.67;20.42;;;;;;;-1.98;84.32;100741.50;5075624;28;20032;-73
2022/12/13 01:49:55;;;;;;;47.70;20.08;;;;;;;-1.99;84.52;100750.19;5076171;28;20050;-73
2022/12/13 01:52:22;;;;;;;46.33;20.05;;;;;;;-1.94;84.15;100750.00;5075908;28;20040;-73
2022/12/13 01:54:52;;;;;;;48.90;20.50;;;;;;;-1.94;84.24;100742.19;5058188;28;20474;-72
2022/12/13 01:57:22;;;;;;;46.53;19.75;;;;;;;-2.06;84.67;100742.78;5075638;28;20482;-73
2022/12/13 01:59:49;;;;;;;50.25;20.80;;;;;;;-2.07;84.98;100743.66;5076147;28;20049;-72
2022/12/13 02:02:16;;;;;;;47.15;19.95;;;;;;;-2.01;84.73;100744.22;5075698;28;20509;-73
2022/12/13 02:05:05;;;;;;;51.53;20.85;;;;;;;-2.04;84.97;100739.16;5075602;28;20044;-73
2022/12/13 02:07:36;;;;;;;53.75;20.50;;;;;;;-2.05;84.87;100737.50;5074330;28;20041;-73
2022/12/13 02:10:05;;;;;;;49.13;20.20;;;;;;;-2.07;84.62;100747.13;5075984;28;20494;-73
2022/12/13 02:12:34;;;;;;;50.45;20.42;;;;;;;-2.07;84.40;100744.53;5075306;28;20044;-74
2022/12/13 02:15:06;;;;;;;44.47;18.92;;;;;;;-2.05;84.65;100749.66;5075641;28;20032;-72
2022/12/13 02:17:56;;;;;;;44.83;19.05;;;;;;;-2.09;84.50;100751.56;5075332;28;20498;-73
2022/12/13 02:20:36;;;;;;;49.80;18.88;;;;;;;-2.14;84.54;100750.94;5075584;28;20054;-73
2022/12/13 02:26:35;;;;;;;49.05;18.95;;;;;;;-2.23;84.90;100743.56;5131476;27;20899;-72
2022/12/13 02:29:42;;;;;;;46.88;19.13;;;;;;;-2.15;84.84;100739.72;5110992;28;20051;-72
2022/12/13 02:32:21;;;;;;;48.38;18.85;;;;;;;-2.08;84.09;100742.00;5093010;28;20050;-72
2022/12/13 02:35:10;;;;;;;51.53;18.27;;;;;;;-2.08;84.35;100737.63;5110651;28;20042;-72
2022/12/13 02:38:03;;;;;;;50.13;19.73;;;;;;;-2.03;84.14;100743.47;5055814;28;20054;-72
2022/12/13 02:40:37;;;;;;;48.35;19.27;;;;;;;-2.00;84.09;100740.72;5090512;28;20123;-72
2022/12/13 02:43:11;;;;;;;49.72;18.85;;;;;;;-2.16;84.18;100744.97;5090651;28;20118;-72
2022/12/13 02:45:45;;;;;;;49.47;19.52;;;;;;;-2.05;83.95;100740.09;5090583;28;20043;-72
2022/12/13 02:48:16;;;;;;;47.90;18.95;;;;;;;-2.01;83.62;100748.59;5089962;28;20044;-72
2022/12/13 02:50:44;;;;;;;45.53;18.70;;;;;;;-2.02;83.53;100741.69;5090438;28;20071;-73
2022/12/13 02:53:13;;;;;;;46.60;18.95;;;;;;;-2.10;83.64;100730.84;5059888;28;20290;-73
2022/12/13 02:55:40;;;;;;;48.40;20.52;;;;;;;-2.12;83.83;100734.34;5090430;28;20044;-73
2022/12/13 02:58:12;;;;;;;54.83;20.52;;;;;;;-2.12;83.56;100726.53;5072134;28;20040;-72
2022/12/13 03:06:37;;;;;;;45.00;18.83;;;;;;;-2.13;83.19;100721.41;5110285;27;20358;-71
2022/12/13 03:17:59;;;;;;;52.85;22.48;;;;;;;-2.25;83.78;100722.84;5111102;27;20373;-72
2022/12/13 03:20:28;;;;;;;54.38;21.20;;;;;;;-2.19;83.26;100726.91;5110090;28;20489;-72
2022/12/13 03:22:56;;;;;;;44.50;20.02;;;;;;;-2.20;82.77;100720.03;5111064;28;20485;-72
2022/12/13 03:25:27;;;;;;;46.50;20.02;;;;;;;-2.10;82.49;100720.44;5109858;28;20043;-72
2022/12/13 03:27:53;;;;;;;43.30;19.80;;;;;;;-2.20;82.22;100726.09;5111116;28;20067;-72
2022/12/13 03:30:21;;;;;;;48.38;18.95;;;;;;;-2.14;81.80;100724.94;5109883;28;20285;-72
2022/12/13 03:32:48;;;;;;;46.83;19.95;;;;;;;-2.13;81.96;100729.22;5110657;28;20036;-72
2022/12/13 03:35:15;;;;;;;48.30;19.02;;;;;;;-2.16;82.35;100725.00;5110955;28;20044;-72
2022/12/13 03:37:41;;;;;;;40.70;17.95;;;;;;;-2.21;82.09;100721.78;5110305;28;20534;-72
2022/12/13 03:40:09;;;;;;;49.38;19.63;;;;;;;-2.26;82.20;100726.34;5110763;28;20040;-74
2022/12/13 03:42:35;;;;;;;44.67;18.00;;;;;;;-2.30;82.41;100730.03;5111128;28;20048;-73
2022/12/13 03:45:02;;;;;;;39.40;18.42;;;;;;;-2.33;82.50;100724.97;5109336;28;20069;-73
2022/12/13 03:47:29;;;;;;;49.65;18.98;;;;;;;-2.29;82.40;100723.06;5110600;28;20078;-72
2022/12/13 03:49:56;;;;;;;44.58;18.27;;;;;;;-2.38;82.66;100716.56;5110308;28;20066;-73
2022/12/13 03:52:22;;;;;;;44.00;18.38;;;;;;;-2.38;82.40;100719.16;5110784;28;20047;-73
2022/12/13 03:54:49;;;;;;;44.67;18.83;;;;;;;-2.38;82.76;100713.97;5110632;28;20052;-72
2022/12/13 03:57:15;;;;;;;43.40;18.33;;;;;;;-2.50;82.48;100710.16;5110191;28;20374;-73
2022/12/13 03:59:42;;;;;;;40.90;18.13;;;;;;;-2.45;82.61;100713.41;5110369;28;20040;-73
2022/12/13 04:02:09;;;;;;;44.50;17.90;;;;;;;-2.42;82.63;100708.06;5110227;28;20036;-73
2022/12/13 04:04:36;;;;;;;40.25;17.25;;;;;;;-2.55;82.90;100712.13;5109440;28;20047;-73
2022/12/13 04:07:03;;;;;;;45.65;18.70;;;;;;;-2.50;82.61;100712.75;5109516;28;20131;-72
2022/12/13 04:09:29;;;;;;;40.15;17.40;;;;;;;-2.57;82.79;100704.41;5110257;28;20047;-72
2022/12/13 04:14:43;;;;;;;42.75;17.80;;;;;;;-2.55;82.55;100707.78;5110115;28;20050;-72
2022/12/13 04:17:09;;;;;;;45.17;18.25;;;;;;;-2.50;82.28;100702.38;5108448;28;20051;-73
2022/12/13 04:19:36;;;;;;;48.85;18.70;;;;;;;-2.62;82.37;100701.19;5109781;28;20040;-73
2022/12/13 04:22:03;;;;;;;44.83;17.33;;;;;;;-2.59;82.19;100708.00;5109906;28;20217;-73
2022/12/13 04:24:30;;;;;;;41.65;18.52;;;;;;;-2.60;82.25;100706.28;5109821;28;20046;-72
2022/12/13 04:26:59;;;;;;;42.08;17.02;;;;;;;-2.58;81.98;100704.50;5108261;28;20039;-72
2022/12/13 04:29:25;;;;;;;42.92;18.30;;;;;;;-2.51;82.05;100698.06;5095782;28;20452;-72
2022/12/13 04:31:52;;;;;;;43.90;17.70;;;;;;;-2.51;81.55;100698.94;5096713;28;20072;-72
2022/12/13 04:34:19;;;;;;;38.95;17.75;;;;;;;-2.52;81.70;100694.63;5096412;28;20048;-73
2022/12/13 04:36:46;;;;;;;41.60;17.45;;;;;;;-2.60;81.85;100699.38;5095566;28;20554;-72
2022/12/13 04:39:12;;;;;;;42.63;19.25;;;;;;;-2.62;81.83;100695.13;5095875;28;20040;-73
2022/12/13 04:41:39;;;;;;;49.95;18.83;;;;;;;-2.72;81.96;100694.72;5095815;28;20040;-72
2022/12/13 04:44:09;;;;;;;44.45;18.88;;;;;;;-2.67;81.88;100689.31;5096068;28;20050;-72
2022/12/13 04:46:35;;;;;;;43.42;17.67;;;;;;;-2.71;81.69;100694.66;5094483;28;20109;-72
2022/12/13 04:49:02;;;;;;;41.60;17.55;;;;;;;-2.80;82.10;100692.47;5095513;28;20097;-73
2022/12/13 04:51:29;;;;;;;42.72;18.48;;;;;;;-2.73;81.78;100693.03;5095647;28;20036;-72
2022/12/13 04:53:56;;;;;;;46.28;17.33;;;;;;;-2.76;81.75;100696.63;5095829;28;20044;-71
2022/12/13 04:56:22;;;;;;;42.55;18.30;;;;;;;-2.74;81.29;100696.56;5094788;28;20048;-72
2022/12/13 04:58:49;;;;;;;36.45;17.55;;;;;;;-2.84;81.86;100698.72;5095505;28;20051;-71
2022/12/13 05:01:15;;;;;;;39.83;16.88;;;;;;;-2.81;82.17;100698.56;5095808;28;20044;-71
2022/12/13 05:03:42;;;;;;;43.08;17.30;;;;;;;-2.87;82.73;100688.47;5095366;28;20064;-72
2022/12/13 05:06:12;;;;;;;41.90;17.55;;;;;;;-2.95;82.58;100696.63;5094921;28;20046;-72
2022/12/13 05:08:39;;;;;;;41.28;16.88;;;;;;;-3.04;82.88;100690.97;5095158;28;20444;-72
2022/12/13 05:11:08;;;;;;;50.42;18.50;;;;;;;-3.09;83.25;100688.59;5095517;28;20101;-72
2022/12/13 05:13:35;;;;;;;42.15;17.83;;;;;;;-3.00;82.61;100695.97;5094328;28;20047;-73
2022/12/13 05:16:05;;;;;;;43.13;17.40;;;;;;;-2.97;82.51;100685.44;5095037;28;20067;-72
2022/12/13 05:18:33;;;;;;;41.75;17.45;;;;;;;-3.03;82.47;100682.28;5094344;28;20048;-72
2022/12/13 05:21:04;;;;;;;39.55;17.10;;;;;;;-2.92;82.42;100687.84;5094535;28;20452;-72
2022/12/13 05:23:31;;;;;;;42.90;18.58;;;;;;;-2.96;82.54;100686.31;5095468;28;20485;-72
2022/12/13 05:25:58;;;;;;;40.20;18.25;;;;;;;-3.03;82.74;100679.69;5093823;28;20105;-73
2022/12/13 05:28:27;;;;;;;44.92;18.10;;;;;;;-3.02;82.55;100678.78;5094674;28;20039;-71
2022/12/13 05:30:57;;;;;;;40.10;17.50;;;;;;;-3.12;82.61;100675.75;5095640;28;20048;-73
2022/12/13 05:33:25;;;;;;;39.28;17.13;;;;;;;-2.99;82.08;100682.06;5095114;28;20081;-73
2022/12/13 05:35:52;;;;;;;43.90;17.42;;;;;;;-3.14;82.32;100672.38;5095009;28;20048;-71
2022/12/13 05:38:21;;;;;;;42.65;16.42;;;;;;;-3.20;82.68;100675.22;5080747;28;20395;-72
2022/12/13 05:40:48;;;;;;;42.80;17.98;;;;;;;-3.20;82.48;100665.72;5094049;28;20090;-73
2022/12/13 05:43:15;;;;;;;42.38;17.88;;;;;;;-3.19;82.83;100667.38;5094859;28;20500;-72
2022/12/13 05:45:41;;;;;;;43.30;18.00;;;;;;;-3.14;82.20;100668.03;5094784;28;20051;-72
2022/12/13 05:48:09;;;;;;;43.95;18.05;;;;;;;-3.13;82.67;100668.88;5076903;28;20082;-73
2022/12/13 05:50:37;;;;;;;41.20;17.20;;;;;;;-3.15;82.41;100675.88;5093437;28;20048;-73
2022/12/13 05:53:04;;;;;;;37.78;17.20;;;;;;;-3.14;82.24;100677.56;5094643;28;20058;-72
2022/12/13 05:55:31;;;;;;;37.88;16.40;;;;;;;-3.18;82.05;100670.84;5093109;28;20401;-73
2022/12/13 05:57:58;;;;;;;44.00;17.30;;;;;;;-3.41;83.55;100672.69;5093371;28;20040;-72
2022/12/13 06:00:25;;;;;;;42.00;18.42;;;;;;;-3.42;83.73;100673.59;5094568;28;20105;-72
2022/12/13 06:02:52;;;;;;;40.85;16.30;;;;;;;-3.42;83.98;100671.00;5093335;28;20078;-73
2022/12/13 06:05:19;;;;;;;38.03;16.90;;;;;;;-3.34;83.95;100671.50;5093960;28;20418;-73
2022/12/13 06:07:45;;;;;;;39.92;17.60;;;;;;;-3.47;84.03;100673.78;5093741;28;20044;-73
2022/12/13 06:10:12;;;;;;;44.83;17.60;;;;;;;-3.42;84.06;100681.38;5093097;28;20048;-73
2022/12/13 06:12:39;;;;;;;40.30;17.10;;;;;;;-3.59;85.14;100681.25;5092926;28;20135;-73
2022/12/13 06:15:06;;;;;;;42.10;17.65;;;;;;;-3.53;84.90;100681.84;5094517;28;20048;-73
2022/12/13 06:17:35;;;;;;;41.25;16.85;;;;;;;-3.58;85.02;100672.56;5093492;28;20051;-73
2022/12/13 06:20:04;;;;;;;44.88;17.10;;;;;;;-3.57;85.33;100672.47;5094389;28;20047;-73
2022/12/13 06:22:31;;;;;;;42.92;18.35;;;;;;;-3.49;84.80;100675.59;5076300;28;20564;-73
2022/12/13 06:25:00;;;;;;;36.75;16.25;;;;;;;-3.45;84.51;100678.91;5092874;28;20052;-73
2022/12/13 06:27:27;;;;;;;44.28;17.42;;;;;;;-3.36;84.30;100680.28;5093638;28;20114;-73
2022/12/13 06:29:53;;;;;;;38.80;17.95;;;;;;;-3.26;83.66;100681.53;5094044;28;20047;-74
2022/12/13 06:32:20;;;;;;;41.13;17.88;;;;;;;-3.47;83.79;100686.75;5093632;28;20059;-73
2022/12/13 06:34:48;;;;;;;43.67;18.33;;;;;;;-3.48;83.67;100677.28;5093837;28;20047;-72
2022/12/13 06:37:15;;;;;;;51.35;18.30;;;;;;;-3.39;83.32;100678.63;5093331;28;20086;-73
2022/12/13 06:39:42;;;;;;;44.63;18.50;;;;;;;-3.61;83.85;100681.31;5093339;28;20044;-72
2022/12/13 06:42:15;;;;;;;42.15;17.45;;;;;;;-3.55;84.30;100685.38;5093212;28;20040;-72
2022/12/13 06:44:42;;;;;;;46.67;17.02;;;;;;;-3.49;83.96;100683.38;5093691;28;20052;-72
2022/12/13 06:47:09;;;;;;;44.92;18.63;;;;;;;-3.47;83.87;100678.97;5093044;28;20093;-73
2022/12/13 06:49:38;;;;;;;45.65;18.35;;;;;;;-3.42;84.03;100685.72;5091901;28;20040;-73
2022/12/13 06:52:09;;;;;;;42.45;17.20;;;;;;;-3.34;83.52;100686.25;5091509;28;20040;-73
2022/12/13 06:54:35;;;;;;;39.15;16.65;;;;;;;-3.44;83.97;100682.34;5092803;28;20473;-72
2022/12/13 06:57:02;;;;;;;39.72;18.02;;;;;;;-3.41;83.76;100682.22;5093059;28;20371;-72
2022/12/13 06:59:29;;;;;;;41.20;17.17;;;;;;;-3.41;83.60;100680.47;5091709;28;20036;-72
2022/12/13 07:01:56;;;;;;;37.83;15.90;;;;;;;-3.62;84.17;100674.47;5092311;28;20052;-72
2022/12/13 07:04:22;;;;;;;38.08;17.25;;;;;;;-3.70;84.43;100676.50;5093233;28;20072;-72
2022/12/13 07:06:49;;;;;;;50.67;17.02;;;;;;;-3.64;84.42;100670.22;5090327;28;20462;-72
2022/12/13 07:09:16;;;;;;;39.50;16.40;;;;;;;-3.61;84.17;100677.88;5071616;28;20048;-72
2022/12/13 07:11:43;;;;;;;38.42;15.70;;;;;;;-3.71;83.97;100683.47;5055123;28;20449;-74
2022/12/13 07:14:14;;;;;;;39.53;16.75;;;;;;;-3.62;83.69;100682.25;5073031;28;20131;-72
2022/12/13 07:16:40;;;;;;;34.50;15.10;;;;;;;-3.72;84.17;100681.75;5072732;28;20559;-72
2022/12/13 07:19:09;;;;;;;40.72;15.40;;;;;;;-3.77;83.81;100677.69;5072832;28;20043;-72
2022/12/13 07:21:37;;;;;;;38.92;15.60;;;;;;;-3.71;83.52;100680.00;5072709;28;20048;-72
2022/12/13 07:24:04;;;;;;;37.42;16.00;;;;;;;-3.78;82.72;100675.97;5073152;28;20045;-73
2022/12/13 07:26:31;;;;;;;43.05;16.88;;;;;;;-3.76;83.24;100675.03;5072845;28;20045;-73
2022/12/13 07:28:58;;;;;;;35.42;15.32;;;;;;;-3.96;83.25;100690.56;5071988;28;20075;-73
2022/12/13 07:31:25;;;;;;;39.80;16.63;;;;;;;-3.74;82.89;100687.94;5072700;28;20066;-73
2022/12/13 07:33:52;;;;;;;44.95;16.10;;;;;;;-4.01;83.06;100692.50;5072782;28;20040;-73
2022/12/13 07:36:22;;;;;;;38.67;16.08;;;;;;;-3.85;82.89;100693.56;5085948;28;20474;-73
2022/12/13 07:38:52;;;;;;;40.65;16.50;;;;;;;-3.83;83.34;100694.34;5092542;28;20032;-73
2022/12/13 07:41:18;;;;;;;37.60;16.42;;;;;;;-3.80;82.64;100702.00;5092909;28;20036;-73
2022/12/13 07:43:45;;;;;;;37.67;15.13;;;;;;;-3.83;82.63;100699.50;5091985;28;20055;-73
2022/12/13 07:46:12;;;;;;;39.80;15.77;;;;;;;-3.80;83.04;100703.72;5092820;28;20052;-73
2022/12/13 07:48:39;;;;;;;41.45;16.63;;;;;;;-3.73;82.69;100707.75;5091285;28;20405;-73
2022/12/13 07:51:10;;;;;;;65.35;17.63;;;;;;;-3.89;82.25;100698.03;5092892;28;20485;-73
2022/12/13 07:53:37;;;;;;;38.83;15.15;;;;;;;-3.88;83.44;100693.66;5075571;28;20048;-72
2022/12/13 07:56:06;;;;;;;37.45;14.98;;;;;;;-3.83;82.76;100701.28;5060300;28;20044;-68
2022/12/13 07:58:33;;;;;;;34.92;15.05;;;;;;;-3.92;83.06;100692.13;5098766;28;20087;-68
2022/12/13 08:01:02;;;;;;;38.10;15.77;;;;;;;-3.71;82.17;100695.56;5090832;28;20090;-67
2022/12/13 08:03:29;;;;;;;40.40;16.30;;;;;;;-3.76;82.32;100681.97;5083316;28;20512;-72
2022/12/13 08:06:00;;;;;;;34.95;15.82;;;;;;;-3.64;82.01;100693.56;5090838;28;20078;-72
2022/12/13 08:08:27;;;;;;;37.80;14.67;;;;;;;-3.71;81.78;100700.75;5087615;28;20040;-70
2022/12/13 08:10:54;;;;;;;38.80;15.65;;;;;;;-3.68;81.30;100698.03;5086307;28;20040;-69
2022/12/13 08:13:20;;;;;;;45.60;17.33;;;;;;;-3.70;81.25;100690.31;5091898;28;20094;-66
2022/12/13 08:15:47;;;;;;;47.47;19.00;;;;;;;-3.54;80.40;100703.47;5096556;28;20051;-71
2022/12/13 08:18:15;;;;;;;38.13;14.50;;;;;;;-3.57;79.71;100695.81;5094799;28;20043;-71
2022/12/13 08:20:41;;;;;;;36.88;14.75;;;;;;;-3.47;79.92;100704.06;5102150;28;20039;-71
2022/12/13 08:23:08;;;;;;;34.67;14.32;;;;;;;-3.41;79.99;100703.81;5093934;28;20039;-71
2022/12/13 08:25:36;;;;;;;37.35;14.98;;;;;;;-3.31;79.38;100701.66;5106108;28;20036;-71
2022/12/13 08:28:04;;;;;;;32.72;13.95;;;;;;;-3.45;79.36;100704.84;5070645;28;20366;-71
2022/12/13 08:30:31;;;;;;;39.97;14.48;;;;;;;-3.53;79.79;100705.19;5088746;28;20054;-71
2022/12/13 08:32:58;;;;;;;34.63;15.13;;;;;;;-3.40;80.26;100708.09;5090828;28;20058;-69
2022/12/13 08:35:27;;;;;;;32.13;13.98;;;;;;;-3.49;79.76;100714.50;5092242;28;20470;-70
2022/12/13 08:37:59;;;;;;;33.63;14.38;;;;;;;-3.57;79.92;100711.38;5087921;28;20043;-70
2022/12/13 08:40:25;;;;;;;37.42;14.90;;;;;;;-3.31;79.09;100709.44;5094121;28;20555;-70
2022/12/13 08:42:54;;;;;;;35.05;15.38;;;;;;;-3.24;79.49;100712.63;5087635;28;20036;-70
2022/12/13 08:45:22;;;;;;;31.52;14.05;;;;;;;-3.24;79.51;100704.81;5101725;28;20100;-71
2022/12/13 08:47:49;;;;;;;34.47;14.57;;;;;;;-3.34;79.32;100705.22;5094111;28;20071;-70
2022/12/13 08:50:16;;;;;;;35.00;13.95;;;;;;;-3.17;78.53;100699.28;5086918;28;20562;-70
2022/12/13 08:52:43;;;;;;;31.77;14.38;;;;;;;-3.44;78.54;100696.16;5083550;28;20556;-70
2022/12/13 08:55:12;;;;;;;34.10;13.85;;;;;;;-3.27;79.14;100703.22;5092133;28;20093;-70
2022/12/13 08:57:40;;;;;;;34.15;13.68;;;;;;;-3.29;79.10;100708.47;5080202;28;20089;-71
2022/12/13 09:00:10;;;;;;;33.25;14.07;;;;;;;-3.18;78.30;100710.59;5087010;28;20043;-70
2022/12/13 09:02:37;;;;;;;30.95;13.02;;;;;;;-3.18;78.40;100707.19;5088402;28;20520;-71
2022/12/13 09:05:06;;;;;;;34.28;14.05;;;;;;;-3.06;77.95;100718.75;5095790;28;20032;-71
2022/12/13 09:07:35;;;;;;;30.83;12.50;;;;;;;-2.85;78.01;100723.00;5079755;28;20056;-69
2022/12/13 09:10:04;;;;;;;26.92;12.23;;;;;;;-2.76;77.47;100732.13;5082356;28;20070;-71
2022/12/13 09:12:30;;;;;;;31.42;12.68;;;;;;;-2.63;76.98;100729.81;5087301;27;20048;-71
2022/12/13 09:14:57;;;;;;;35.67;12.95;;;;;;;-2.71;76.18;100720.63;5076215;28;20044;-71
2022/12/13 09:17:24;;;;;;;28.20;12.85;;;;;;;-2.67;75.80;100717.88;5097046;28;20075;-69
2022/12/13 09:19:52;;;;;;;32.33;13.05;;;;;;;-2.84;76.03;100716.88;5061383;28;20051;-71
2022/12/13 09:22:20;;;;;;;30.73;13.05;;;;;;;-2.81;77.25;100726.31;5094820;28;20131;-71
2022/12/13 09:24:48;;;;;;;28.85;13.25;;;;;;;-2.72;76.52;100723.28;5083391;28;20456;-70
2022/12/13 09:27:14;;;;;;;30.70;13.27;;;;;;;-2.83;75.52;100723.78;5077733;28;20055;-70
2022/12/13 09:29:41;;;;;;;30.27;12.65;;;;;;;-2.62;75.31;100719.38;5097182;28;20032;-70
2022/12/13 09:32:08;;;;;;;36.13;13.90;;;;;;;-2.67;75.11;100712.69;5085892;28;20031;-69
2022/12/13 09:34:34;;;;;;;31.45;14.63;;;;;;;-2.54;75.14;100721.63;5084300;28;20044;-65
2022/12/13 09:37:01;;;;;;;32.78;13.57;;;;;;;-2.47;74.64;100722.16;5080087;28;20048;-70
2022/12/13 09:39:29;;;;;;;27.92;11.90;;;;;;;-2.60;74.71;100714.94;5082240;28;20032;-71
2022/12/13 09:41:57;;;;;;;30.08;13.27;;;;;;;-2.39;74.58;100720.88;5088505;28;20048;-71
2022/12/13 09:44:28;;;;;;;27.00;12.65;;;;;;;-2.17;74.37;100719.88;5075644;28;20391;-70
2022/12/13 09:46:59;;;;;;;30.55;13.77;;;;;;;-2.24;73.57;100718.50;5084320;28;20109;-70
2022/12/13 09:49:32;;;;;;;33.67;15.07;;;;;;;-2.18;73.71;100713.03;5092604;28;20131;-70
2022/12/13 09:52:01;;;;;;;30.25;12.77;;;;;;;-1.81;73.34;100716.44;5069364;28;20141;-70
2022/12/13 09:54:32;;;;;;;27.20;12.38;;;;;;;-1.71;72.60;100720.28;5080350;28;20036;-70
2022/12/13 09:56:59;;;;;;;30.50;13.45;;;;;;;-2.04;72.77;100723.56;5071034;28;20068;-70
2022/12/13 09:59:29;;;;;;;31.05;12.85;;;;;;;-2.08;73.60;100716.00;5079900;28;20043;-70
2022/12/13 10:02:02;;;;;;;30.27;12.63;;;;;;;-1.88;73.21;100720.25;5084608;28;20063;-70
2022/12/13 10:04:29;;;;;;;28.90;12.93;;;;;;;-1.91;73.22;100710.84;5088833;28;20089;-70
2022/12/13 10:06:58;;;;;;;29.33;12.98;;;;;;;-1.72;72.82;100712.53;5080914;28;20055;-70
2022/12/13 10:09:25;;;;;;;29.33;13.25;;;;;;;-1.45;72.16;100699.91;5091063;28;20440;-70
2022/12/13 10:11:53;;;;;;;29.08;12.95;;;;;;;-1.56;71.62;100705.66;5089896;28;20044;-70
2022/12/13 10:14:28;;;;;;;28.02;13.38;;;;;;;-1.60;72.39;100699.75;5068988;28;20050;-71
2022/12/13 10:17:01;;;;;;;30.20;13.43;;;;;;;-1.61;72.42;100692.88;5078433;28;20146;-71
2022/12/13 10:19:34;;;;;;;27.88;12.23;;;;;;;-1.32;71.69;100693.16;5075008;28;20060;-70
2022/12/13 10:22:04;;;;;;;33.38;12.98;;;;;;;-1.35;71.27;100688.09;5077430;28;20441;-71
2022/12/13 10:24:52;;;;;;;33.13;13.30;;;;;;;-1.55;71.92;100678.69;5090899;28;20394;-71
2022/12/13 10:27:27;;;;;;;31.80;12.25;;;;;;;-1.28;72.27;100673.84;5073730;28;20049;-71
2022/12/13 10:30:16;;;;;;;31.92;13.30;;;;;;;-1.08;72.17;100675.41;5069158;28;20472;-71
2022/12/13 10:32:55;;;;;;;29.13;12.38;;;;;;;-1.18;70.83;100677.66;5079507;28;20043;-70
2022/12/13 10:35:27;;;;;;;30.50;12.73;;;;;;;-1.09;71.26;100670.28;5093146;28;20055;-70
2022/12/13 10:37:55;;;;;;;;;;;;;;;-1.01;70.87;100668.13;5089112;28;20048;-70
2022/12/13 10:40:25;;;;;;;28.50;12.13;;;;;;;-1.23;70.91;100658.84;5096187;28;20320;-69
2022/12/13 10:43:14;;;;;;;33.53;13.85;;;;;;;-0.83;70.52;100656.72;5082633;28;20049;-69
2022/12/13 10:45:43;;;;;;;36.38;13.27;;;;;;;-0.89;71.22;100650.97;5072212;28;20132;-70
2022/12/13 10:48:20;;;;;;;27.33;12.77;;;;;;;-0.39;68.71;100656.03;5066319;28;20390;-70
2022/12/13 10:51:04;;;;;;;27.70;12.85;;;;;;;0.17;67.41;100638.06;5072571;28;20052;-70
2022/12/13 10:53:36;;;;;;;26.88;11.95;;;;;;;1.77;61.85;100637.81;5072675;28;20048;-70
2022/12/13 10:56:06;;;;;;;31.73;13.10;;;;;;;2.39;59.62;100641.63;5092473;28;20398;-70
2022/12/13 10:58:37;;;;;;;30.02;12.35;;;;;;;2.70;57.46;100632.50;5088744;28;20040;-70
2022/12/13 11:01:23;;;;;;;28.27;12.85;;;;;;;4.49;53.87;100630.88;5063208;28;20058;-70
2022/12/13 11:04:30;;;;;;;32.67;13.65;;;;;;;6.01;48.29;100636.41;5081745;28;20048;-70
2022/12/13 11:07:00;;;;;;;30.75;13.43;;;;;;;5.90;45.93;100626.72;5091636;28;20062;-69
2022/12/13 11:12:23;;;;;;;29.10;13.77;;;;;;;8.69;40.88;100633.97;5087749;28;20125;-70
2022/12/13 11:15:06;;;;;;;27.98;13.60;;;;;;;9.45;39.73;100624.13;5064753;28;20096;-70
2022/12/13 11:17:44;;;;;;;28.75;14.02;;;;;;;9.38;38.22;100624.72;5069600;28;20044;-70
2022/12/13 11:20:18;;;;;;;28.65;13.93;;;;;;;10.37;37.51;100621.16;5063956;28;20045;-70
2022/12/13 11:22:45;;;;;;;32.60;14.15;;;;;;;8.36;39.24;100614.94;5069032;28;20219;-70
2022/12/13 11:25:24;;;;;;;31.02;14.90;;;;;;;8.43;40.21;100613.44;5065360;28;20041;-70
2022/12/13 11:28:08;;;;;;;29.00;14.45;;;;;;;8.29;40.23;100602.47;5070688;28;20509;-70
2022/12/13 11:31:00;;;;;;;32.53;15.27;;;;;;;7.82;41.01;100603.19;5064945;28;20487;-71
2022/12/13 11:34:03;;;;;;;33.65;15.68;;;;;;;7.88;41.76;100602.66;5069546;28;20048;-70
2022/12/13 11:36:41;;;;;;;;;;;;;;;6.61;42.93;100593.66;5069729;28;20041;-70
2022/12/13 11:39:35;;;;;;;30.60;14.82;;;;;;;7.36;42.63;100599.44;5066886;28;20321;-70
2022/12/13 11:42:27;;;;;;;41.60;15.23;;;;;;;5.71;44.96;100589.72;5081239;28;20037;-70
2022/12/13 11:45:02;;;;;;;32.15;15.13;;;;;;;5.05;46.56;100593.25;5062499;28;20076;-70